sensor_id;sensor_type;location;lat;lon;timestamp;P1;durP1;ratioP1;P2;durP2;ratioP2
12892;SDS011;6514;48.606;9.222;2023-12-29T00:01:30;2.97;;;1.77;;
12892;SDS011;6514;48.606;9.222;2023-12-29T00:03:57;2.77;;;1.77;;
12892;SDS011;6514;48.606;9.222;2023-12-29T00:06:24;2.20;;;1.60;;
12892;SDS011;6514;48.606;9.222;2023-12-29T00:08:51;2.03;;;1.50;;
12892;SDS011;6514;48.606;9.222;2023-12-29T00:11:19;2.50;;;1.60;;
12892;SDS011;6514;48.606;9.222;2023-12-29T00:13:46;2.67;;;1.70;;
12892;SDS011;6514;48.606;9.222;2023-12-29T00:16:14;1.93;;;1.50;;
12892;SDS011;6514;48.606;9.222;2023-12-29T00:18:42;2.70;;;1.70;;
12892;SDS011;6514;48.606;9.222;2023-12-29T00:21:09;1.70;;;1.50;;
12892;SDS011;6514;48.606;9.222;2023-12-29T00:23:36;3.03;;;1.50;;
12892;SDS011;6514;48.606;9.222;2023-12-29T00:26:03;1.40;;;1.30;;
12892;SDS011;6514;48.606;9.222;2023-12-29T00:28:30;1.53;;;1.43;;
12892;SDS011;6514;48.606;9.222;2023-12-29T00:30:56;2.33;;;1.70;;
12892;SDS011;6514;48.606;9.222;2023-12-29T00:33:23;2.80;;;1.30;;
12892;SDS011;6514;48.606;9.222;2023-12-29T00:35:53;3.33;;;1.60;;
12892;SDS011;6514;48.606;9.222;2023-12-29T00:38:20;2.00;;;1.60;;
12892;SDS011;6514;48.606;9.222;2023-12-29T00:40:46;2.27;;;1.50;;
12892;SDS011;6514;48.606;9.222;2023-12-29T00:43:14;2.03;;;1.60;;
12892;SDS011;6514;48.606;9.222;2023-12-29T00:45:42;1.97;;;1.60;;
12892;SDS011;6514;48.606;9.222;2023-12-29T00:48:09;1.70;;;1.40;;
12892;SDS011;6514;48.606;9.222;2023-12-29T00:50:35;2.70;;;1.67;;
12892;SDS011;6514;48.606;9.222;2023-12-29T00:53:04;2.20;;;2.00;;
12892;SDS011;6514;48.606;9.222;2023-12-29T00:55:30;2.40;;;1.77;;
12892;SDS011;6514;48.606;9.222;2023-12-29T00:57:57;2.97;;;1.60;;
12892;SDS011;6514;48.606;9.222;2023-12-29T01:00:24;1.87;;;1.57;;
12892;SDS011;6514;48.606;9.222;2023-12-29T01:02:51;2.33;;;1.90;;
12892;SDS011;6514;48.606;9.222;2023-12-29T01:05:18;3.60;;;2.20;;
12892;SDS011;6514;48.606;9.222;2023-12-29T01:07:44;2.77;;;2.10;;
12892;SDS011;6514;48.606;9.222;2023-12-29T01:10:13;1.90;;;1.80;;
12892;SDS011;6514;48.606;9.222;2023-12-29T01:12:40;2.17;;;1.93;;
12892;SDS011;6514;48.606;9.222;2023-12-29T01:15:07;2.13;;;1.70;;
12892;SDS011;6514;48.606;9.222;2023-12-29T01:17:34;1.77;;;1.67;;
12892;SDS011;6514;48.606;9.222;2023-12-29T01:20:01;3.20;;;2.10;;
12892;SDS011;6514;48.606;9.222;2023-12-29T01:22:28;2.73;;;1.97;;
12892;SDS011;6514;48.606;9.222;2023-12-29T01:24:55;3.40;;;2.47;;
12892;SDS011;6514;48.606;9.222;2023-12-29T01:27:26;2.30;;;2.00;;
12892;SDS011;6514;48.606;9.222;2023-12-29T01:29:53;2.60;;;2.00;;
12892;SDS011;6514;48.606;9.222;2023-12-29T01:32:19;2.20;;;1.90;;
12892;SDS011;6514;48.606;9.222;2023-12-29T01:34:47;2.33;;;1.73;;
12892;SDS011;6514;48.606;9.222;2023-12-29T01:37:13;3.23;;;1.70;;
12892;SDS011;6514;48.606;9.222;2023-12-29T01:39:40;1.77;;;1.63;;
12892;SDS011;6514;48.606;9.222;2023-12-29T01:42:07;2.17;;;1.87;;
12892;SDS011;6514;48.606;9.222;2023-12-29T01:44:37;2.50;;;2.03;;
12892;SDS011;6514;48.606;9.222;2023-12-29T01:47:05;2.77;;;2.13;;
12892;SDS011;6514;48.606;9.222;2023-12-29T01:49:39;2.90;;;2.20;;
12892;SDS011;6514;48.606;9.222;2023-12-29T01:52:07;3.10;;;2.17;;
12892;SDS011;6514;48.606;9.222;2023-12-29T01:54:34;2.50;;;2.30;;
12892;SDS011;6514;48.606;9.222;2023-12-29T01:57:03;3.10;;;1.80;;
12892;SDS011;6514;48.606;9.222;2023-12-29T01:59:30;3.93;;;2.17;;
12892;SDS011;6514;48.606;9.222;2023-12-29T02:01:59;3.07;;;1.90;;
12892;SDS011;6514;48.606;9.222;2023-12-29T02:04:27;4.17;;;2.17;;
12892;SDS011;6514;48.606;9.222;2023-12-29T02:06:54;3.50;;;2.30;;
12892;SDS011;6514;48.606;9.222;2023-12-29T02:09:21;2.40;;;1.97;;
12892;SDS011;6514;48.606;9.222;2023-12-29T02:11:48;3.57;;;1.87;;
12892;SDS011;6514;48.606;9.222;2023-12-29T02:14:15;2.30;;;2.10;;
12892;SDS011;6514;48.606;9.222;2023-12-29T02:16:45;3.17;;;2.50;;
12892;SDS011;6514;48.606;9.222;2023-12-29T02:19:38;1.90;;;1.80;;
12892;SDS011;6514;48.606;9.222;2023-12-29T02:22:06;3.30;;;2.53;;
12892;SDS011;6514;48.606;9.222;2023-12-29T02:24:33;2.40;;;2.20;;
12892;SDS011;6514;48.606;9.222;2023-12-29T02:27:05;3.90;;;2.07;;
12892;SDS011;6514;48.606;9.222;2023-12-29T02:29:45;3.90;;;2.13;;
12892;SDS011;6514;48.606;9.222;2023-12-29T02:32:20;2.00;;;1.80;;
12892;SDS011;6514;48.606;9.222;2023-12-29T02:34:48;4.20;;;2.33;;
12892;SDS011;6514;48.606;9.222;2023-12-29T02:37:18;3.77;;;2.23;;
12892;SDS011;6514;48.606;9.222;2023-12-29T02:39:46;4.17;;;2.30;;
12892;SDS011;6514;48.606;9.222;2023-12-29T02:42:14;2.97;;;2.33;;
12892;SDS011;6514;48.606;9.222;2023-12-29T02:44:41;3.83;;;2.50;;
12892;SDS011;6514;48.606;9.222;2023-12-29T02:47:08;2.70;;;2.33;;
12892;SDS011;6514;48.606;9.222;2023-12-29T02:49:34;2.33;;;2.10;;
12892;SDS011;6514;48.606;9.222;2023-12-29T02:52:01;2.50;;;2.30;;
12892;SDS011;6514;48.606;9.222;2023-12-29T02:54:28;3.13;;;2.30;;
12892;SDS011;6514;48.606;9.222;2023-12-29T02:56:55;2.93;;;2.40;;
12892;SDS011;6514;48.606;9.222;2023-12-29T02:59:23;4.33;;;2.43;;
12892;SDS011;6514;48.606;9.222;2023-12-29T03:01:50;3.13;;;2.47;;
12892;SDS011;6514;48.606;9.222;2023-12-29T03:04:17;2.30;;;2.03;;
12892;SDS011;6514;48.606;9.222;2023-12-29T03:06:43;3.30;;;2.33;;
12892;SDS011;6514;48.606;9.222;2023-12-29T03:09:10;3.33;;;2.30;;
12892;SDS011;6514;48.606;9.222;2023-12-29T03:11:37;2.80;;;2.07;;
12892;SDS011;6514;48.606;9.222;2023-12-29T03:14:04;2.87;;;2.03;;
12892;SDS011;6514;48.606;9.222;2023-12-29T03:16:32;2.10;;;1.90;;
12892;SDS011;6514;48.606;9.222;2023-12-29T03:18:59;2.47;;;2.27;;
12892;SDS011;6514;48.606;9.222;2023-12-29T03:21:25;2.40;;;2.20;;
12892;SDS011;6514;48.606;9.222;2023-12-29T03:23:52;3.03;;;2.10;;
12892;SDS011;6514;48.606;9.222;2023-12-29T03:26:19;3.27;;;2.00;;
12892;SDS011;6514;48.606;9.222;2023-12-29T03:28:46;2.53;;;2.07;;
12892;SDS011;6514;48.606;9.222;2023-12-29T03:31:12;4.43;;;2.07;;
12892;SDS011;6514;48.606;9.222;2023-12-29T03:33:40;3.10;;;1.93;;
12892;SDS011;6514;48.606;9.222;2023-12-29T03:36:08;3.80;;;2.13;;
12892;SDS011;6514;48.606;9.222;2023-12-29T03:38:35;3.23;;;2.20;;
12892;SDS011;6514;48.606;9.222;2023-12-29T03:41:02;2.50;;;2.20;;
12892;SDS011;6514;48.606;9.222;2023-12-29T03:43:29;2.27;;;2.07;;
12892;SDS011;6514;48.606;9.222;2023-12-29T03:45:56;2.57;;;2.20;;
12892;SDS011;6514;48.606;9.222;2023-12-29T03:48:23;3.03;;;2.30;;
12892;SDS011;6514;48.606;9.222;2023-12-29T03:50:51;3.27;;;2.03;;
12892;SDS011;6514;48.606;9.222;2023-12-29T03:53:18;3.33;;;2.10;;
12892;SDS011;6514;48.606;9.222;2023-12-29T03:55:45;2.60;;;2.03;;
12892;SDS011;6514;48.606;9.222;2023-12-29T03:58:12;2.10;;;1.70;;
12892;SDS011;6514;48.606;9.222;2023-12-29T04:00:38;2.27;;;1.80;;
12892;SDS011;6514;48.606;9.222;2023-12-29T04:03:06;3.43;;;2.10;;
12892;SDS011;6514;48.606;9.222;2023-12-29T04:05:33;5.77;;;1.90;;
12892;SDS011;6514;48.606;9.222;2023-12-29T04:08:01;2.00;;;1.83;;
12892;SDS011;6514;48.606;9.222;2023-12-29T04:10:28;4.90;;;3.40;;
12892;SDS011;6514;48.606;9.222;2023-12-29T04:12:55;5.93;;;3.50;;
12892;SDS011;6514;48.606;9.222;2023-12-29T04:15:22;5.13;;;3.13;;
12892;SDS011;6514;48.606;9.222;2023-12-29T04:17:49;4.73;;;3.00;;
12892;SDS011;6514;48.606;9.222;2023-12-29T04:20:15;5.63;;;3.43;;
12892;SDS011;6514;48.606;9.222;2023-12-29T04:22:42;10.37;;;5.77;;
12892;SDS011;6514;48.606;9.222;2023-12-29T04:25:10;7.63;;;4.97;;
12892;SDS011;6514;48.606;9.222;2023-12-29T04:27:37;5.23;;;3.60;;
12892;SDS011;6514;48.606;9.222;2023-12-29T04:30:05;4.13;;;2.93;;
12892;SDS011;6514;48.606;9.222;2023-12-29T04:32:33;3.17;;;2.80;;
12892;SDS011;6514;48.606;9.222;2023-12-29T04:35:00;2.80;;;2.40;;
12892;SDS011;6514;48.606;9.222;2023-12-29T04:37:27;5.23;;;3.70;;
12892;SDS011;6514;48.606;9.222;2023-12-29T04:39:53;2.87;;;2.63;;
12892;SDS011;6514;48.606;9.222;2023-12-29T04:42:22;6.77;;;4.60;;
12892;SDS011;6514;48.606;9.222;2023-12-29T04:44:49;5.13;;;3.77;;
12892;SDS011;6514;48.606;9.222;2023-12-29T04:47:15;5.23;;;3.50;;
12892;SDS011;6514;48.606;9.222;2023-12-29T04:49:42;6.00;;;3.60;;
12892;SDS011;6514;48.606;9.222;2023-12-29T04:52:09;6.10;;;3.60;;
12892;SDS011;6514;48.606;9.222;2023-12-29T04:54:36;4.97;;;2.77;;
12892;SDS011;6514;48.606;9.222;2023-12-29T04:57:03;4.43;;;2.57;;
12892;SDS011;6514;48.606;9.222;2023-12-29T04:59:31;4.83;;;2.90;;
12892;SDS011;6514;48.606;9.222;2023-12-29T05:01:58;4.97;;;2.77;;
12892;SDS011;6514;48.606;9.222;2023-12-29T05:04:25;5.23;;;3.40;;
12892;SDS011;6514;48.606;9.222;2023-12-29T05:06:52;2.40;;;2.10;;
12892;SDS011;6514;48.606;9.222;2023-12-29T05:09:19;3.10;;;2.57;;
12892;SDS011;6514;48.606;9.222;2023-12-29T05:11:46;4.30;;;2.43;;
12892;SDS011;6514;48.606;9.222;2023-12-29T05:14:12;3.23;;;2.10;;
12892;SDS011;6514;48.606;9.222;2023-12-29T05:16:41;2.33;;;2.13;;
12892;SDS011;6514;48.606;9.222;2023-12-29T05:19:08;4.90;;;2.23;;
12892;SDS011;6514;48.606;9.222;2023-12-29T05:21:35;2.77;;;2.33;;
12892;SDS011;6514;48.606;9.222;2023-12-29T05:24:02;3.20;;;1.97;;
12892;SDS011;6514;48.606;9.222;2023-12-29T05:26:29;2.43;;;2.17;;
12892;SDS011;6514;48.606;9.222;2023-12-29T05:28:56;2.93;;;2.27;;
12892;SDS011;6514;48.606;9.222;2023-12-29T05:31:23;2.60;;;2.10;;
12892;SDS011;6514;48.606;9.222;2023-12-29T05:33:51;2.23;;;2.00;;
12892;SDS011;6514;48.606;9.222;2023-12-29T05:36:19;2.27;;;2.07;;
12892;SDS011;6514;48.606;9.222;2023-12-29T05:38:46;3.20;;;2.30;;
12892;SDS011;6514;48.606;9.222;2023-12-29T05:41:13;2.60;;;1.90;;
12892;SDS011;6514;48.606;9.222;2023-12-29T05:43:40;2.40;;;2.20;;
12892;SDS011;6514;48.606;9.222;2023-12-29T05:46:08;2.53;;;2.33;;
12892;SDS011;6514;48.606;9.222;2023-12-29T05:48:36;4.17;;;2.97;;
12892;SDS011;6514;48.606;9.222;2023-12-29T05:51:07;2.43;;;2.20;;
12892;SDS011;6514;48.606;9.222;2023-12-29T05:53:35;2.43;;;2.23;;
12892;SDS011;6514;48.606;9.222;2023-12-29T05:56:02;2.50;;;2.03;;
12892;SDS011;6514;48.606;9.222;2023-12-29T05:58:29;2.67;;;2.47;;
12892;SDS011;6514;48.606;9.222;2023-12-29T06:00:56;2.17;;;1.97;;
12892;SDS011;6514;48.606;9.222;2023-12-29T06:03:24;2.57;;;2.13;;
12892;SDS011;6514;48.606;9.222;2023-12-29T06:05:50;2.77;;;2.40;;
12892;SDS011;6514;48.606;9.222;2023-12-29T06:08:19;2.10;;;1.90;;
12892;SDS011;6514;48.606;9.222;2023-12-29T06:10:46;2.37;;;2.10;;
12892;SDS011;6514;48.606;9.222;2023-12-29T06:13:13;2.20;;;2.00;;
12892;SDS011;6514;48.606;9.222;2023-12-29T06:15:40;4.47;;;2.40;;
12892;SDS011;6514;48.606;9.222;2023-12-29T06:18:07;2.53;;;2.33;;
12892;SDS011;6514;48.606;9.222;2023-12-29T06:20:34;2.40;;;2.20;;
12892;SDS011;6514;48.606;9.222;2023-12-29T06:23:00;2.37;;;2.03;;
12892;SDS011;6514;48.606;9.222;2023-12-29T06:25:29;3.10;;;2.10;;
12892;SDS011;6514;48.606;9.222;2023-12-29T06:27:55;2.53;;;2.10;;
12892;SDS011;6514;48.606;9.222;2023-12-29T06:30:22;2.07;;;1.87;;
12892;SDS011;6514;48.606;9.222;2023-12-29T06:32:49;3.20;;;2.20;;
12892;SDS011;6514;48.606;9.222;2023-12-29T06:35:17;2.10;;;1.90;;
12892;SDS011;6514;48.606;9.222;2023-12-29T06:37:44;2.37;;;2.17;;
12892;SDS011;6514;48.606;9.222;2023-12-29T06:40:11;4.00;;;1.73;;
12892;SDS011;6514;48.606;9.222;2023-12-29T06:42:39;3.43;;;2.23;;
12892;SDS011;6514;48.606;9.222;2023-12-29T06:45:06;2.80;;;2.10;;
12892;SDS011;6514;48.606;9.222;2023-12-29T06:47:34;2.17;;;1.90;;
12892;SDS011;6514;48.606;9.222;2023-12-29T06:50:01;3.00;;;1.90;;
12892;SDS011;6514;48.606;9.222;2023-12-29T06:52:27;2.30;;;2.10;;
12892;SDS011;6514;48.606;9.222;2023-12-29T06:54:59;3.97;;;2.90;;
12892;SDS011;6514;48.606;9.222;2023-12-29T06:57:26;4.17;;;3.13;;
12892;SDS011;6514;48.606;9.222;2023-12-29T06:59:55;2.87;;;2.60;;
12892;SDS011;6514;48.606;9.222;2023-12-29T07:02:22;5.27;;;3.37;;
12892;SDS011;6514;48.606;9.222;2023-12-29T07:04:49;4.67;;;3.30;;
12892;SDS011;6514;48.606;9.222;2023-12-29T07:07:15;4.23;;;2.60;;
12892;SDS011;6514;48.606;9.222;2023-12-29T07:09:43;4.23;;;2.40;;
12892;SDS011;6514;48.606;9.222;2023-12-29T07:12:09;6.43;;;2.70;;
12892;SDS011;6514;48.606;9.222;2023-12-29T07:14:37;3.97;;;2.90;;
12892;SDS011;6514;48.606;9.222;2023-12-29T07:17:05;4.00;;;3.20;;
12892;SDS011;6514;48.606;9.222;2023-12-29T07:19:32;3.13;;;2.80;;
12892;SDS011;6514;48.606;9.222;2023-12-29T07:22:02;2.73;;;2.30;;
12892;SDS011;6514;48.606;9.222;2023-12-29T07:24:30;2.73;;;2.40;;
12892;SDS011;6514;48.606;9.222;2023-12-29T07:26:57;2.70;;;2.10;;
12892;SDS011;6514;48.606;9.222;2023-12-29T07:29:24;3.03;;;2.30;;
12892;SDS011;6514;48.606;9.222;2023-12-29T07:31:51;3.20;;;2.60;;
12892;SDS011;6514;48.606;9.222;2023-12-29T07:34:20;2.63;;;2.40;;
12892;SDS011;6514;48.606;9.222;2023-12-29T07:36:47;2.57;;;1.80;;
12892;SDS011;6514;48.606;9.222;2023-12-29T07:39:14;3.47;;;2.13;;
12892;SDS011;6514;48.606;9.222;2023-12-29T07:41:41;2.47;;;2.27;;
12892;SDS011;6514;48.606;9.222;2023-12-29T07:44:09;2.67;;;2.30;;
12892;SDS011;6514;48.606;9.222;2023-12-29T07:46:37;2.57;;;2.37;;
12892;SDS011;6514;48.606;9.222;2023-12-29T07:49:04;2.50;;;2.10;;
12892;SDS011;6514;48.606;9.222;2023-12-29T07:51:32;4.63;;;2.13;;
12892;SDS011;6514;48.606;9.222;2023-12-29T07:53:59;3.80;;;2.57;;
12892;SDS011;6514;48.606;9.222;2023-12-29T07:56:26;2.60;;;2.20;;
12892;SDS011;6514;48.606;9.222;2023-12-29T07:58:53;4.40;;;2.77;;
12892;SDS011;6514;48.606;9.222;2023-12-29T08:01:20;2.50;;;2.30;;
12892;SDS011;6514;48.606;9.222;2023-12-29T08:03:47;3.10;;;2.50;;
12892;SDS011;6514;48.606;9.222;2023-12-29T08:06:14;2.90;;;2.17;;
12892;SDS011;6514;48.606;9.222;2023-12-29T08:08:42;4.77;;;2.10;;
12892;SDS011;6514;48.606;9.222;2023-12-29T08:11:12;2.60;;;2.40;;
12892;SDS011;6514;48.606;9.222;2023-12-29T08:13:40;2.10;;;1.90;;
12892;SDS011;6514;48.606;9.222;2023-12-29T08:16:07;2.63;;;2.30;;
12892;SDS011;6514;48.606;9.222;2023-12-29T08:18:34;3.07;;;2.10;;
12892;SDS011;6514;48.606;9.222;2023-12-29T08:21:01;2.80;;;2.57;;
12892;SDS011;6514;48.606;9.222;2023-12-29T08:23:28;2.77;;;2.23;;
12892;SDS011;6514;48.606;9.222;2023-12-29T08:25:57;2.60;;;2.27;;
12892;SDS011;6514;48.606;9.222;2023-12-29T08:28:24;3.43;;;2.03;;
12892;SDS011;6514;48.606;9.222;2023-12-29T08:30:51;3.30;;;1.87;;
12892;SDS011;6514;48.606;9.222;2023-12-29T08:33:20;2.10;;;1.70;;
12892;SDS011;6514;48.606;9.222;2023-12-29T08:35:47;4.40;;;1.57;;
12892;SDS011;6514;48.606;9.222;2023-12-29T08:38:13;1.60;;;1.50;;
12892;SDS011;6514;48.606;9.222;2023-12-29T08:40:40;1.70;;;1.60;;
12892;SDS011;6514;48.606;9.222;2023-12-29T08:43:09;3.53;;;1.60;;
12892;SDS011;6514;48.606;9.222;2023-12-29T08:45:36;1.50;;;1.37;;
12892;SDS011;6514;48.606;9.222;2023-12-29T08:48:04;1.97;;;1.50;;
12892;SDS011;6514;48.606;9.222;2023-12-29T08:50:31;1.73;;;1.63;;
12892;SDS011;6514;48.606;9.222;2023-12-29T08:52:58;2.33;;;1.47;;
12892;SDS011;6514;48.606;9.222;2023-12-29T08:55:25;2.13;;;1.50;;
12892;SDS011;6514;48.606;9.222;2023-12-29T08:57:52;1.83;;;1.50;;
12892;SDS011;6514;48.606;9.222;2023-12-29T09:00:21;4.07;;;1.60;;
12892;SDS011;6514;48.606;9.222;2023-12-29T09:02:48;1.90;;;1.53;;
12892;SDS011;6514;48.606;9.222;2023-12-29T09:05:15;1.90;;;1.70;;
12892;SDS011;6514;48.606;9.222;2023-12-29T09:07:41;1.60;;;1.50;;
12892;SDS011;6514;48.606;9.222;2023-12-29T09:10:08;1.83;;;1.70;;
12892;SDS011;6514;48.606;9.222;2023-12-29T09:12:37;2.13;;;1.50;;
12892;SDS011;6514;48.606;9.222;2023-12-29T09:15:05;1.90;;;1.40;;
12892;SDS011;6514;48.606;9.222;2023-12-29T09:17:34;2.77;;;1.40;;
12892;SDS011;6514;48.606;9.222;2023-12-29T09:20:01;1.30;;;1.20;;
12892;SDS011;6514;48.606;9.222;2023-12-29T09:22:28;2.07;;;1.33;;
12892;SDS011;6514;48.606;9.222;2023-12-29T09:24:55;2.33;;;1.37;;
12892;SDS011;6514;48.606;9.222;2023-12-29T09:27:22;1.43;;;1.33;;
12892;SDS011;6514;48.606;9.222;2023-12-29T09:29:49;1.90;;;1.27;;
12892;SDS011;6514;48.606;9.222;2023-12-29T09:32:16;2.73;;;1.40;;
12892;SDS011;6514;48.606;9.222;2023-12-29T09:34:44;4.43;;;1.40;;
12892;SDS011;6514;48.606;9.222;2023-12-29T09:37:11;2.33;;;1.60;;
12892;SDS011;6514;48.606;9.222;2023-12-29T09:39:39;1.27;;;1.13;;
12892;SDS011;6514;48.606;9.222;2023-12-29T09:42:06;1.53;;;1.40;;
12892;SDS011;6514;48.606;9.222;2023-12-29T09:44:35;2.20;;;1.50;;
12892;SDS011;6514;48.606;9.222;2023-12-29T09:47:03;1.73;;;1.37;;
12892;SDS011;6514;48.606;9.222;2023-12-29T09:49:35;1.60;;;1.17;;
12892;SDS011;6514;48.606;9.222;2023-12-29T09:52:06;3.67;;;1.57;;
12892;SDS011;6514;48.606;9.222;2023-12-29T09:54:35;1.43;;;1.33;;
12892;SDS011;6514;48.606;9.222;2023-12-29T09:57:03;1.10;;;1.00;;
12892;SDS011;6514;48.606;9.222;2023-12-29T09:59:32;1.20;;;1.10;;
12892;SDS011;6514;48.606;9.222;2023-12-29T10:02:01;1.07;;;1.00;;
12892;SDS011;6514;48.606;9.222;2023-12-29T10:04:30;1.40;;;1.30;;
12892;SDS011;6514;48.606;9.222;2023-12-29T10:07:01;2.20;;;1.30;;
12892;SDS011;6514;48.606;9.222;2023-12-29T10:09:34;1.73;;;1.10;;
12892;SDS011;6514;48.606;9.222;2023-12-29T10:12:03;2.13;;;1.10;;
12892;SDS011;6514;48.606;9.222;2023-12-29T10:14:36;1.93;;;1.10;;
12892;SDS011;6514;48.606;9.222;2023-12-29T10:17:09;1.00;;;0.93;;
12892;SDS011;6514;48.606;9.222;2023-12-29T10:19:45;1.87;;;1.20;;
12892;SDS011;6514;48.606;9.222;2023-12-29T10:22:18;2.43;;;1.20;;
12892;SDS011;6514;48.606;9.222;2023-12-29T10:24:49;1.03;;;0.87;;
12892;SDS011;6514;48.606;9.222;2023-12-29T10:27:17;1.27;;;1.10;;
12892;SDS011;6514;48.606;9.222;2023-12-29T10:29:44;2.00;;;1.37;;
12892;SDS011;6514;48.606;9.222;2023-12-29T10:32:12;1.17;;;0.90;;
12892;SDS011;6514;48.606;9.222;2023-12-29T10:34:38;1.80;;;1.20;;
12892;SDS011;6514;48.606;9.222;2023-12-29T10:37:06;1.30;;;1.10;;
12892;SDS011;6514;48.606;9.222;2023-12-29T10:39:38;1.23;;;1.03;;
12892;SDS011;6514;48.606;9.222;2023-12-29T10:42:22;1.30;;;1.00;;
12892;SDS011;6514;48.606;9.222;2023-12-29T10:44:48;2.20;;;1.10;;
12892;SDS011;6514;48.606;9.222;2023-12-29T10:47:31;1.37;;;1.10;;
12892;SDS011;6514;48.606;9.222;2023-12-29T10:49:58;0.90;;;0.90;;
12892;SDS011;6514;48.606;9.222;2023-12-29T10:52:26;1.03;;;0.93;;
12892;SDS011;6514;48.606;9.222;2023-12-29T10:55:03;1.77;;;0.87;;
12892;SDS011;6514;48.606;9.222;2023-12-29T10:57:32;0.90;;;0.90;;
12892;SDS011;6514;48.606;9.222;2023-12-29T10:59:59;0.90;;;0.80;;
12892;SDS011;6514;48.606;9.222;2023-12-29T11:02:26;2.27;;;0.90;;
12892;SDS011;6514;48.606;9.222;2023-12-29T11:05:00;1.00;;;0.90;;
12892;SDS011;6514;48.606;9.222;2023-12-29T11:07:32;1.27;;;0.90;;
12892;SDS011;6514;48.606;9.222;2023-12-29T11:10:00;1.70;;;1.30;;
12892;SDS011;6514;48.606;9.222;2023-12-29T11:12:29;0.80;;;0.80;;
12892;SDS011;6514;48.606;9.222;2023-12-29T11:14:59;1.07;;;0.80;;
12892;SDS011;6514;48.606;9.222;2023-12-29T11:17:30;0.97;;;0.67;;
12892;SDS011;6514;48.606;9.222;2023-12-29T11:19:58;2.80;;;1.20;;
12892;SDS011;6514;48.606;9.222;2023-12-29T11:22:27;1.50;;;1.07;;
12892;SDS011;6514;48.606;9.222;2023-12-29T11:24:55;1.60;;;1.37;;
12892;SDS011;6514;48.606;9.222;2023-12-29T11:27:25;1.13;;;0.70;;
12892;SDS011;6514;48.606;9.222;2023-12-29T11:29:54;1.30;;;1.00;;
12892;SDS011;6514;48.606;9.222;2023-12-29T11:32:24;0.90;;;0.73;;
12892;SDS011;6514;48.606;9.222;2023-12-29T11:35:02;2.70;;;2.33;;
12892;SDS011;6514;48.606;9.222;2023-12-29T11:37:40;0.87;;;0.80;;
12892;SDS011;6514;48.606;9.222;2023-12-29T11:40:18;2.47;;;0.93;;
12892;SDS011;6514;48.606;9.222;2023-12-29T11:42:48;1.00;;;0.90;;
12892;SDS011;6514;48.606;9.222;2023-12-29T11:45:23;1.57;;;0.93;;
12892;SDS011;6514;48.606;9.222;2023-12-29T11:47:53;0.90;;;0.80;;
12892;SDS011;6514;48.606;9.222;2023-12-29T11:50:28;1.00;;;0.90;;
12892;SDS011;6514;48.606;9.222;2023-12-29T11:52:56;0.90;;;0.90;;
12892;SDS011;6514;48.606;9.222;2023-12-29T11:55:27;0.80;;;0.80;;
12892;SDS011;6514;48.606;9.222;2023-12-29T11:57:56;1.33;;;1.00;;
12892;SDS011;6514;48.606;9.222;2023-12-29T12:00:42;0.80;;;0.80;;
12892;SDS011;6514;48.606;9.222;2023-12-29T12:03:17;1.00;;;0.90;;
12892;SDS011;6514;48.606;9.222;2023-12-29T12:05:49;0.80;;;0.70;;
12892;SDS011;6514;48.606;9.222;2023-12-29T12:08:26;0.93;;;0.80;;
12892;SDS011;6514;48.606;9.222;2023-12-29T12:10:54;0.80;;;0.80;;
12892;SDS011;6514;48.606;9.222;2023-12-29T12:16:10;0.90;;;0.80;;
12892;SDS011;6514;48.606;9.222;2023-12-29T12:19:19;1.33;;;0.90;;
12892;SDS011;6514;48.606;9.222;2023-12-29T12:21:49;1.07;;;0.87;;
12892;SDS011;6514;48.606;9.222;2023-12-29T12:24:19;1.00;;;0.90;;
12892;SDS011;6514;48.606;9.222;2023-12-29T12:26:46;1.10;;;1.00;;
12892;SDS011;6514;48.606;9.222;2023-12-29T12:29:14;1.07;;;0.70;;
12892;SDS011;6514;48.606;9.222;2023-12-29T12:31:52;1.93;;;0.70;;
12892;SDS011;6514;48.606;9.222;2023-12-29T12:34:21;1.37;;;0.90;;
12892;SDS011;6514;48.606;9.222;2023-12-29T12:36:48;1.23;;;1.00;;
12892;SDS011;6514;48.606;9.222;2023-12-29T12:39:15;1.23;;;0.93;;
12892;SDS011;6514;48.606;9.222;2023-12-29T12:41:42;1.40;;;0.93;;
12892;SDS011;6514;48.606;9.222;2023-12-29T12:44:10;1.33;;;1.07;;
12892;SDS011;6514;48.606;9.222;2023-12-29T12:46:39;1.20;;;1.00;;
12892;SDS011;6514;48.606;9.222;2023-12-29T12:49:07;1.20;;;0.93;;
12892;SDS011;6514;48.606;9.222;2023-12-29T12:51:36;0.80;;;0.80;;
12892;SDS011;6514;48.606;9.222;2023-12-29T12:54:03;1.03;;;1.00;;
12892;SDS011;6514;48.606;9.222;2023-12-29T12:56:30;1.57;;;1.33;;
12892;SDS011;6514;48.606;9.222;2023-12-29T12:58:58;2.00;;;1.10;;
12892;SDS011;6514;48.606;9.222;2023-12-29T13:01:27;1.43;;;0.83;;
12892;SDS011;6514;48.606;9.222;2023-12-29T13:03:55;0.80;;;0.80;;
12892;SDS011;6514;48.606;9.222;2023-12-29T13:06:24;1.00;;;0.83;;
12892;SDS011;6514;48.606;9.222;2023-12-29T13:08:53;0.77;;;0.77;;
12892;SDS011;6514;48.606;9.222;2023-12-29T13:11:20;1.43;;;0.83;;
12892;SDS011;6514;48.606;9.222;2023-12-29T13:13:50;1.50;;;1.40;;
12892;SDS011;6514;48.606;9.222;2023-12-29T13:16:28;1.00;;;0.73;;
12892;SDS011;6514;48.606;9.222;2023-12-29T13:18:55;1.30;;;0.93;;
12892;SDS011;6514;48.606;9.222;2023-12-29T13:21:22;3.07;;;1.00;;
12892;SDS011;6514;48.606;9.222;2023-12-29T13:23:49;0.90;;;0.87;;
12892;SDS011;6514;48.606;9.222;2023-12-29T13:26:16;1.30;;;1.10;;
12892;SDS011;6514;48.606;9.222;2023-12-29T13:28:45;0.87;;;0.80;;
12892;SDS011;6514;48.606;9.222;2023-12-29T13:31:12;1.13;;;1.00;;
12892;SDS011;6514;48.606;9.222;2023-12-29T13:33:43;1.37;;;1.10;;
12892;SDS011;6514;48.606;9.222;2023-12-29T13:36:18;1.30;;;0.83;;
12892;SDS011;6514;48.606;9.222;2023-12-29T13:38:50;1.60;;;0.70;;
12892;SDS011;6514;48.606;9.222;2023-12-29T13:41:21;0.80;;;0.80;;
12892;SDS011;6514;48.606;9.222;2023-12-29T13:43:50;0.93;;;0.80;;
12892;SDS011;6514;48.606;9.222;2023-12-29T13:46:19;1.30;;;0.90;;
12892;SDS011;6514;48.606;9.222;2023-12-29T13:48:46;0.63;;;0.60;;
12892;SDS011;6514;48.606;9.222;2023-12-29T13:51:15;1.63;;;1.10;;
12892;SDS011;6514;48.606;9.222;2023-12-29T13:53:42;3.57;;;1.20;;
12892;SDS011;6514;48.606;9.222;2023-12-29T13:56:10;1.00;;;0.90;;
12892;SDS011;6514;48.606;9.222;2023-12-29T13:58:38;1.83;;;1.17;;
12892;SDS011;6514;48.606;9.222;2023-12-29T14:01:07;3.20;;;1.43;;
12892;SDS011;6514;48.606;9.222;2023-12-29T14:03:37;0.80;;;0.80;;
12892;SDS011;6514;48.606;9.222;2023-12-29T14:06:12;1.70;;;0.80;;
12892;SDS011;6514;48.606;9.222;2023-12-29T14:08:47;0.97;;;0.90;;
12892;SDS011;6514;48.606;9.222;2023-12-29T14:11:16;1.13;;;1.03;;
12892;SDS011;6514;48.606;9.222;2023-12-29T14:16:30;1.00;;;0.80;;
12892;SDS011;6514;48.606;9.222;2023-12-29T14:18:59;1.10;;;0.90;;
12892;SDS011;6514;48.606;9.222;2023-12-29T14:21:30;1.03;;;0.90;;
12892;SDS011;6514;48.606;9.222;2023-12-29T14:24:01;1.23;;;0.93;;
12892;SDS011;6514;48.606;9.222;2023-12-29T14:26:56;1.83;;;1.00;;
12892;SDS011;6514;48.606;9.222;2023-12-29T14:29:25;1.60;;;1.20;;
12892;SDS011;6514;48.606;9.222;2023-12-29T14:31:52;1.17;;;1.07;;
12892;SDS011;6514;48.606;9.222;2023-12-29T14:34:21;1.50;;;1.10;;
12892;SDS011;6514;48.606;9.222;2023-12-29T14:36:48;1.20;;;1.00;;
12892;SDS011;6514;48.606;9.222;2023-12-29T14:39:15;1.23;;;1.00;;
12892;SDS011;6514;48.606;9.222;2023-12-29T14:41:42;1.03;;;0.93;;
12892;SDS011;6514;48.606;9.222;2023-12-29T14:44:10;1.53;;;0.90;;
12892;SDS011;6514;48.606;9.222;2023-12-29T14:46:39;2.23;;;1.67;;
12892;SDS011;6514;48.606;9.222;2023-12-29T14:49:07;2.00;;;1.10;;
12892;SDS011;6514;48.606;9.222;2023-12-29T14:51:35;1.10;;;0.97;;
12892;SDS011;6514;48.606;9.222;2023-12-29T14:54:03;1.90;;;1.40;;
12892;SDS011;6514;48.606;9.222;2023-12-29T14:56:29;1.73;;;1.30;;
12892;SDS011;6514;48.606;9.222;2023-12-29T14:58:57;3.63;;;1.10;;
12892;SDS011;6514;48.606;9.222;2023-12-29T15:01:26;1.93;;;1.17;;
12892;SDS011;6514;48.606;9.222;2023-12-29T15:03:55;1.20;;;1.10;;
12892;SDS011;6514;48.606;9.222;2023-12-29T15:06:23;2.63;;;1.07;;
12892;SDS011;6514;48.606;9.222;2023-12-29T15:08:50;1.37;;;0.93;;
12892;SDS011;6514;48.606;9.222;2023-12-29T15:11:17;1.63;;;0.97;;
12892;SDS011;6514;48.606;9.222;2023-12-29T15:13:46;1.80;;;1.00;;